Time;durP1;ratioP1;P1;durP2;ratioP2;P2;SDS_P1;SDS_P2;PMS_P1;PMS_P2;Temp;Humidity;BMP_temperature;BMP_pressure;BME280_temperature;BME280_humidity;BME280_pressure;Samples;Min_cycle;Max_cycle;Signal;HPM_P1;HPM_P2
2023/03/20 00:02:20;;;;;;;;;;;;;;;;;;5049559;28;20288;-59
2023/03/20 00:04:46;;;;;;;;;;;;;;;;;;5049822;28;19909;-59
2023/03/20 00:07:12;;;;;;;;;;;;;;;;;;5050062;28;19920;-59
2023/03/20 00:09:38;;;;;;;;;;;;;;;;;;5049235;28;20409;-59
2023/03/20 00:12:04;;;;;;;;;;;;;;;;;;5050148;28;20266;-59
2023/03/20 00:14:30;;;;;;;;;;;;;;;;;;5049608;28;19920;-59
2023/03/20 00:16:56;;;;;;;;;;;;;;;;;;5049507;28;20297;-59
2023/03/20 00:19:22;;;;;;;;;;;;;;;;;;5049384;28;19909;-59
2023/03/20 00:21:48;;;;;;;;;;;;;;;;;;5050179;28;19921;-59
2023/03/20 00:24:13;;;;;;;;;;;;;;;;;;5049606;28;19913;-60
2023/03/20 00:26:39;;;;;;;;;;;;;;;;;;5049462;28;19913;-59
2023/03/20 00:29:06;;;;;;;;;;;;;;;;;;5049809;28;19909;-59
2023/03/20 00:31:31;;;;;;;;;;;;;;;;;;5049432;28;20428;-59
2023/03/20 00:33:57;;;;;;;;;;;;;;;;;;5049515;28;19915;-59
2023/03/20 00:36:23;;;;;;;;;;;;;;;;;;5049711;28;19971;-59
2023/03/20 00:38:49;;;;;;;;;;;;;;;;;;5049803;28;19923;-60
2023/03/20 00:41:15;;;;;;;;;;;;;;;;;;5049311;28;19913;-61
2023/03/20 00:43:41;;;;;;;;;;;;;;;;;;5049342;28;20397;-60
2023/03/20 00:46:07;;;;;;;;;;;;;;;;;;5049487;28;19909;-60
2023/03/20 00:48:33;;;;;;;;;;;;;;;;;;5049630;28;19939;-60
2023/03/20 00:50:59;;;;;;;;;;;;;;;;;;5049371;28;20452;-60
2023/03/20 00:53:25;;;;;;;;;;;;;;;;;;5049252;28;20444;-60
2023/03/20 00:55:51;;;;;;;;;;;;;;;;;;5048968;28;19917;-60
2023/03/20 00:58:17;;;;;;;;;;;;;;;;;;5049487;28;20377;-60
2023/03/20 01:00:43;;;;;;;;;;;;;;;;;;5049256;28;19936;-60
2023/03/20 01:03:09;;;;;;;;;;;;;;;;;;5049157;28;19963;-60
2023/03/20 01:05:35;;;;;;;;;;;;;;;;;;5049187;28;19962;-60
2023/03/20 01:08:01;;;;;;;;;;;;;;;;;;5048745;28;19917;-60
2023/03/20 01:10:27;;;;;;;;;;;;;;;;;;5051703;28;19933;-60
2023/03/20 01:12:53;;;;;;;;;;;;;;;;;;5053362;28;20282;-60
2023/03/20 01:15:19;;;;;;;;;;;;;;;;;;5052831;28;20015;-60
2023/03/20 01:17:45;;;;;;;;;;;;;;;;;;5052941;28;19913;-60
2023/03/20 01:20:11;;;;;;;;;;;;;;;;;;5052746;28;19916;-60
2023/03/20 01:22:37;;;;;;;;;;;;;;;;;;5053152;28;19958;-60
2023/03/20 01:25:03;;;;;;;;;;;;;;;;;;5052994;28;19912;-60
2023/03/20 01:27:29;;;;;;;;;;;;;;;;;;5053002;28;19908;-60
2023/03/20 01:29:55;;;;;;;;;;;;;;;;;;5052425;28;19908;-60
2023/03/20 01:32:21;;;;;;;;;;;;;;;;;;5052402;28;19938;-60
2023/03/20 01:34:47;;;;;;;;;;;;;;;;;;5052791;28;20539;-60
2023/03/20 01:37:12;;;;;;;;;;;;;;;;;;5053087;28;19917;-60
2023/03/20 01:39:38;;;;;;;;;;;;;;;;;;5052556;28;19938;-60
2023/03/20 01:42:04;;;;;;;;;;;;;;;;;;5052660;28;19914;-60
2023/03/20 01:44:30;;;;;;;;;;;;;;;;;;5052622;28;19909;-60
2023/03/20 01:46:56;;;;;;;;;;;;;;;;;;5052566;28;19913;-60
2023/03/20 01:49:22;;;;;;;;;;;;;;;;;;5052452;28;19924;-60
2023/03/20 01:51:48;;;;;;;;;;;;;;;;;;5052409;28;20216;-60
2023/03/20 01:54:14;;;;;;;;;;;;;;;;;;5052645;28;19951;-60
2023/03/20 01:56:40;;;;;;;;;;;;;;;;;;5051991;28;20011;-60
2023/03/20 01:59:06;;;;;;;;;;;;;;;;;;5051917;28;20007;-60
2023/03/20 02:01:34;;;;;;;;;;;;;;;;;;5052272;28;19909;-59
2023/03/20 02:04:00;;;;;;;;;;;;;;;;;;5051834;28;19919;-60
2023/03/20 02:06:26;;;;;;;;;;;;;;;;;;5052488;28;19916;-60
2023/03/20 02:08:52;;;;;;;;;;;;;;;;;;5052126;28;20404;-59
2023/03/20 02:11:18;;;;;;;;;;;;;;;;;;5051506;28;20005;-60
2023/03/20 02:13:44;;;;;;;;;;;;;;;;;;5051540;28;20340;-59
2023/03/20 02:16:09;;;;;;;;;;;;;;;;;;5051848;28;19951;-59
2023/03/20 02:18:35;;;;;;;;;;;;;;;;;;5052369;28;19939;-59
2023/03/20 02:21:01;;;;;;;;;;;;;;;;;;5049706;28;19971;-59
2023/03/20 02:23:27;;;;;;;;;;;;;;;;;;5051637;28;20341;-59
2023/03/20 02:25:53;;;;;;;;;;;;;;;;;;5051488;28;20008;-59
2023/03/20 02:28:19;;;;;;;;;;;;;;;;;;5051135;28;20571;-59
2023/03/20 02:30:45;;;;;;;;;;;;;;;;;;5051384;28;20421;-59
2023/03/20 02:33:11;;;;;;;;;;;;;;;;;;5051383;28;19932;-59
2023/03/20 02:35:37;;;;;;;;;;;;;;;;;;5051813;28;19935;-59
2023/03/20 02:38:03;;;;;;;;;;;;;;;;;;5051693;28;19958;-59
2023/03/20 02:40:29;;;;;;;;;;;;;;;;;;5051957;28;20270;-60
2023/03/20 02:42:55;;;;;;;;;;;;;;;;;;5051750;28;19940;-60
2023/03/20 02:45:20;;;;;;;;;;;;;;;;;;5051181;28;19919;-59
2023/03/20 02:47:46;;;;;;;;;;;;;;;;;;5051286;28;19959;-59
2023/03/20 02:50:12;;;;;;;;;;;;;;;;;;5050602;28;19935;-60
2023/03/20 02:52:38;;;;;;;;;;;;;;;;;;5050737;28;20000;-60
2023/03/20 02:55:05;;;;;;;;;;;;;;;;;;5050794;28;20024;-59
2023/03/20 02:57:31;;;;;;;;;;;;;;;;;;5051144;28;19917;-60
2023/03/20 02:59:58;;;;;;;;;;;;;;;;;;5051299;28;19920;-60
2023/03/20 03:02:25;;;;;;;;;;;;;;;;;;5050092;28;19905;-59
2023/03/20 03:04:51;;;;;;;;;;;;;;;;;;5049475;28;19960;-59
2023/03/20 03:07:17;;;;;;;;;;;;;;;;;;5051263;28;19909;-60
2023/03/20 03:09:44;;;;;;;;;;;;;;;;;;5050763;28;19931;-59
2023/03/20 03:12:10;;;;;;;;;;;;;;;;;;5033299;28;19913;-59
2023/03/20 03:14:36;;;;;;;;;;;;;;;;;;5031193;28;20725;-60
2023/03/20 03:17:03;;;;;;;;;;;;;;;;;;5030459;28;19913;-59
2023/03/20 03:19:29;;;;;;;;;;;;;;;;;;5030504;28;19921;-60
2023/03/20 03:21:55;;;;;;;;;;;;;;;;;;5031104;28;19909;-60
2023/03/20 03:24:21;;;;;;;;;;;;;;;;;;5030756;28;20174;-59
2023/03/20 03:26:47;;;;;;;;;;;;;;;;;;5029673;28;19944;-59
2023/03/20 03:29:12;;;;;;;;;;;;;;;;;;5030656;28;19966;-59
2023/03/20 03:31:38;;;;;;;;;;;;;;;;;;5030330;28;19913;-60
2023/03/20 03:34:04;;;;;;;;;;;;;;;;;;5030613;28;20007;-59
2023/03/20 03:36:30;;;;;;;;;;;;;;;;;;5030657;28;19913;-60
2023/03/20 03:38:56;;;;;;;;;;;;;;;;;;5031201;28;19979;-59
2023/03/20 03:41:24;;;;;;;;;;;;;;;;;;5029645;28;20154;-59
2023/03/20 03:43:50;;;;;;;;;;;;;;;;;;5030314;28;19913;-59
2023/03/20 03:46:16;;;;;;;;;;;;;;;;;;5030135;28;19915;-59
2023/03/20 03:48:41;;;;;;;;;;;;;;;;;;5030171;28;19913;-59
2023/03/20 03:51:07;;;;;;;;;;;;;;;;;;5030416;28;20289;-59
2023/03/20 03:53:33;;;;;;;;;;;;;;;;;;5030094;28;19952;-59
2023/03/20 03:55:59;;;;;;;;;;;;;;;;;;5029642;28;20019;-59
2023/03/20 03:58:25;;;;;;;;;;;;;;;;;;5030030;28;19913;-59
2023/03/20 04:00:51;;;;;;;;;;;;;;;;;;5030350;28;19917;-59
2023/03/20 04:03:17;;;;;;;;;;;;;;;;;;5029924;28;19916;-59
2023/03/20 04:05:43;;;;;;;;;;;;;;;;;;5030210;28;19979;-60
2023/03/20 04:08:09;;;;;;;;;;;;;;;;;;5030519;28;19909;-59
2023/03/20 04:10:35;;;;;;;;;;;;;;;;;;5033205;28;19979;-60
2023/03/20 04:13:01;;;;;;;;;;;;;;;;;;5050159;28;19913;-59
2023/03/20 04:15:27;;;;;;;;;;;;;;;;;;5049918;28;20381;-59
2023/03/20 04:17:53;;;;;;;;;;;;;;;;;;5050178;28;19916;-60
2023/03/20 04:20:18;;;;;;;;;;;;;;;;;;5049763;28;19909;-60
2023/03/20 04:22:45;;;;;;;;;;;;;;;;;;5049584;28;20377;-59
2023/03/20 04:25:11;;;;;;;;;;;;;;;;;;5049539;28;19931;-59
2023/03/20 04:27:37;;;;;;;;;;;;;;;;;;5049551;28;20417;-59
2023/03/20 04:30:03;;;;;;;;;;;;;;;;;;5050153;28;19913;-59
2023/03/20 04:32:29;;;;;;;;;;;;;;;;;;5049333;28;20378;-59
2023/03/20 04:34:54;;;;;;;;;;;;;;;;;;5050329;28;20328;-59
2023/03/20 04:37:20;;;;;;;;;;;;;;;;;;5049457;28;19909;-60
2023/03/20 04:39:46;;;;;;;;;;;;;;;;;;5049460;28;19956;-59
2023/03/20 04:42:12;;;;;;;;;;;;;;;;;;5049205;28;19909;-59
2023/03/20 04:44:38;;;;;;;;;;;;;;;;;;5048767;28;19919;-60
2023/03/20 04:47:04;;;;;;;;;;;;;;;;;;5049154;28;20510;-59
2023/03/20 04:49:30;;;;;;;;;;;;;;;;;;5049870;28;20381;-59
2023/03/20 04:51:56;;;;;;;;;;;;;;;;;;5049708;28;19919;-59
2023/03/20 04:54:21;;;;;;;;;;;;;;;;;;5049106;28;19923;-59
2023/03/20 04:56:47;;;;;;;;;;;;;;;;;;5049149;28;19913;-59
2023/03/20 04:59:13;;;;;;;;;;;;;;;;;;5049672;28;19917;-59
2023/03/20 05:01:39;;;;;;;;;;;;;;;;;;5049148;28;19913;-60
2023/03/20 05:04:05;;;;;;;;;;;;;;;;;;5049129;28;19915;-59
2023/03/20 05:06:31;;;;;;;;;;;;;;;;;;5049156;28;19913;-59
2023/03/20 05:08:58;;;;;;;;;;;;;;;;;;5048850;28;20305;-59
2023/03/20 05:11:24;;;;;;;;;;;;;;;;;;5048413;28;20484;-60
2023/03/20 05:13:50;;;;;;;;;;;;;;;;;;5048939;28;19967;-59
2023/03/20 05:16:16;;;;;;;;;;;;;;;;;;5048930;28;19923;-60
2023/03/20 05:18:42;;;;;;;;;;;;;;;;;;5049427;28;20384;-59
2023/03/20 05:21:08;;;;;;;;;;;;;;;;;;5048682;28;19913;-60
2023/03/20 05:23:34;;;;;;;;;;;;;;;;;;5048600;28;20381;-60
2023/03/20 05:26:00;;;;;;;;;;;;;;;;;;5049131;28;19913;-60
2023/03/20 05:28:25;;;;;;;;;;;;;;;;;;5048693;28;19967;-59
2023/03/20 05:30:51;;;;;;;;;;;;;;;;;;5048940;28;19946;-59
2023/03/20 05:33:17;;;;;;;;;;;;;;;;;;5049046;28;19931;-59
2023/03/20 05:35:43;;;;;;;;;;;;;;;;;;5048536;28;19922;-59
2023/03/20 05:38:09;;;;;;;;;;;;;;;;;;5048951;28;20321;-59
2023/03/20 05:40:35;;;;;;;;;;;;;;;;;;5049135;28;19959;-59
2023/03/20 05:43:01;;;;;;;;;;;;;;;;;;5049060;28;20340;-59
2023/03/20 05:45:27;;;;;;;;;;;;;;;;;;5048947;28;19920;-59
2023/03/20 05:47:53;;;;;;;;;;;;;;;;;;5049769;28;19908;-59
2023/03/20 05:50:18;;;;;;;;;;;;;;;;;;5048927;28;19995;-59
2023/03/20 05:52:44;;;;;;;;;;;;;;;;;;5046853;28;19913;-59
2023/03/20 05:55:10;;;;;;;;;;;;;;;;;;5049181;28;19913;-59
2023/03/20 05:57:36;;;;;;;;;;;;;;;;;;5052588;28;19913;-59
2023/03/20 06:00:03;;;;;;;;;;;;;;;;;;5052090;28;19924;-58
2023/03/20 06:02:29;;;;;;;;;;;;;;;;;;5053696;28;20063;-59
2023/03/20 06:04:55;;;;;;;;;;;;;;;;;;5052215;28;20007;-59
2023/03/20 06:07:21;;;;;;;;;;;;;;;;;;5052007;28;19909;-59
2023/03/20 06:09:46;;;;;;;;;;;;;;;;;;5051915;28;19917;-59
2023/03/20 06:12:12;;;;;;;;;;;;;;;;;;5052037;28;20351;-59
2023/03/20 06:14:38;;;;;;;;;;;;;;;;;;5051970;28;19960;-59
2023/03/20 06:17:04;;;;;;;;;;;;;;;;;;5051544;28;19924;-58
2023/03/20 06:19:30;;;;;;;;;;;;;;;;;;5052056;28;20009;-59
2023/03/20 06:21:56;;;;;;;;;;;;;;;;;;5052033;28;19952;-59
2023/03/20 06:24:22;;;;;;;;;;;;;;;;;;5051757;28;19936;-59
2023/03/20 06:26:48;;;;;;;;;;;;;;;;;;5052223;28;20012;-59
2023/03/20 06:29:14;;;;;;;;;;;;;;;;;;5051581;28;20070;-59
2023/03/20 06:31:40;;;;;;;;;;;;;;;;;;5051812;28;20018;-59
2023/03/20 06:34:06;;;;;;;;;;;;;;;;;;5051568;28;19913;-59
2023/03/20 06:36:32;;;;;;;;;;;;;;;;;;5051044;28;19972;-59
2023/03/20 06:38:58;;;;;;;;;;;;;;;;;;5051432;28;19986;-59
2023/03/20 06:41:24;;;;;;;;;;;;;;;;;;5051410;28;19913;-59
2023/03/20 06:43:50;;;;;;;;;;;;;;;;;;5051237;28;19948;-59
2023/03/20 06:46:16;;;;;;;;;;;;;;;;;;5051561;28;20010;-59
2023/03/20 06:48:42;;;;;;;;;;;;;;;;;;5051391;28;19919;-59
2023/03/20 06:51:08;;;;;;;;;;;;;;;;;;5051092;28;19909;-59
2023/03/20 06:53:34;;;;;;;;;;;;;;;;;;5051309;28;20285;-59
2023/03/20 06:56:00;;;;;;;;;;;;;;;;;;5051579;28;20541;-59
2023/03/20 06:58:25;;;;;;;;;;;;;;;;;;5051605;28;19913;-59
2023/03/20 07:00:53;;;;;;;;;;;;;;;;;;5051161;28;19908;-59
2023/03/20 07:03:19;;;;;;;;;;;;;;;;;;5051162;28;19963;-59
2023/03/20 07:05:45;;;;;;;;;;;;;;;;;;5050914;28;19975;-60
2023/03/20 07:08:11;;;;;;;;;;;;;;;;;;5050393;28;19920;-58
2023/03/20 07:10:37;;;;;;;;;;;;;;;;;;5050684;28;19966;-59
2023/03/20 07:13:03;;;;;;;;;;;;;;;;;;5051500;28;19909;-59
2023/03/20 07:15:29;;;;;;;;;;;;;;;;;;5051042;28;20435;-59
2023/03/20 07:17:55;;;;;;;;;;;;;;;;;;5050864;28;19913;-59
2023/03/20 07:20:21;;;;;;;;;;;;;;;;;;5050836;28;19913;-59
2023/03/20 07:22:47;;;;;;;;;;;;;;;;;;5050564;28;19919;-59
2023/03/20 07:25:13;;;;;;;;;;;;;;;;;;5051466;28;19913;-59
2023/03/20 07:27:39;;;;;;;;;;;;;;;;;;5050837;28;19913;-58
2023/03/20 07:30:05;;;;;;;;;;;;;;;;;;5049233;28;19971;-59
2023/03/20 07:32:31;;;;;;;;;;;;;;;;;;5050826;28;20279;-59
2023/03/20 07:34:57;;;;;;;;;;;;;;;;;;5049944;28;19919;-59
2023/03/20 07:37:23;;;;;;;;;;;;;;;;;;5035130;28;19933;-59
2023/03/20 07:39:48;;;;;;;;;;;;;;;;;;5029841;28;19910;-60
2023/03/20 07:42:15;;;;;;;;;;;;;;;;;;5032420;28;19921;-61
2023/03/20 07:44:41;;;;;;;;;;;;;;;;;;5030253;28;20365;-60
2023/03/20 07:47:07;;;;;;;;;;;;;;;;;;5034648;28;19974;-60
2023/03/20 07:49:33;;;;;;;;;;;;;;;;;;5029552;28;19917;-59
2023/03/20 07:51:59;;;;;;;;;;;;;;;;;;5037672;28;19960;-60
2023/03/20 07:54:24;;;;;;;;;;;;;;;;;;5039912;28;19962;-60
2023/03/20 07:56:51;;;;;;;;;;;;;;;;;;5039380;28;19916;-60
2023/03/20 07:59:17;;;;;;;;;;;;;;;;;;5046433;28;20352;-59
2023/03/20 08:01:43;;;;;;;;;;;;;;;;;;5049073;28;19917;-60
2023/03/20 08:04:09;;;;;;;;;;;;;;;;;;5049318;28;19909;-59
2023/03/20 08:06:38;;;;;;;;;;;;;;;;;;5049206;28;20368;-60
2023/03/20 08:09:04;;;;;;;;;;;;;;;;;;5046252;28;20011;-60
2023/03/20 08:11:29;;;;;;;;;;;;;;;;;;5034055;28;19996;-60
2023/03/20 08:13:55;;;;;;;;;;;;;;;;;;5028456;28;19929;-61
2023/03/20 08:16:21;;;;;;;;;;;;;;;;;;5028743;28;19921;-60
2023/03/20 08:18:49;;;;;;;;;;;;;;;;;;5028120;28;19913;-60
2023/03/20 08:21:15;;;;;;;;;;;;;;;;;;5028785;28;19916;-60
2023/03/20 08:23:41;;;;;;;;;;;;;;;;;;5029019;28;20297;-60
2023/03/20 08:26:07;;;;;;;;;;;;;;;;;;5029954;28;20338;-59
2023/03/20 08:28:33;;;;;;;;;;;;;;;;;;5029651;28;19916;-60
2023/03/20 08:30:59;;;;;;;;;;;;;;;;;;5028895;28;19909;-60
2023/03/20 08:33:25;;;;;;;;;;;;;;;;;;5029157;28;19983;-60
2023/03/20 08:35:51;;;;;;;;;;;;;;;;;;5029000;28;20532;-60
2023/03/20 08:38:17;;;;;;;;;;;;;;;;;;5029343;28;19909;-60
2023/03/20 08:40:43;;;;;;;;;;;;;;;;;;5029297;28;19928;-60
2023/03/20 08:43:09;;;;;;;;;;;;;;;;;;5029019;28;19996;-60
2023/03/20 08:45:34;;;;;;;;;;;;;;;;;;5027284;28;19916;-60
2023/03/20 08:48:00;;;;;;;;;;;;;;;;;;5028735;28;19913;-60
2023/03/20 08:50:26;;;;;;;;;;;;;;;;;;5029227;28;20465;-60
2023/03/20 08:52:52;;;;;;;;;;;;;;;;;;5028797;28;19909;-60
2023/03/20 08:55:18;;;;;;;;;;;;;;;;;;5028583;28;19928;-60
2023/03/20 08:57:44;;;;;;;;;;;;;;;;;;5028696;28;19910;-60
2023/03/20 09:00:11;;;;;;;;;;;;;;;;;;5028798;28;20288;-60
2023/03/20 09:02:37;;;;;;;;;;;;;;;;;;5027034;28;19909;-60
2023/03/20 09:05:03;;;;;;;;;;;;;;;;;;5028079;28;19924;-60
2023/03/20 09:07:29;;;;;;;;;;;;;;;;;;5028370;28;20333;-60
2023/03/20 09:09:55;;;;;;;;;;;;;;;;;;5028570;28;19921;-60
2023/03/20 09:12:21;;;;;;;;;;;;;;;;;;5046690;28;19920;-60
2023/03/20 09:14:47;;;;;;;;;;;;;;;;;;5047917;28;19916;-60
2023/03/20 09:17:13;;;;;;;;;;;;;;;;;;5048815;28;20448;-60
2023/03/20 09:19:41;;;;;;;;;;;;;;;;;;5048158;28;19920;-60
2023/03/20 09:22:07;;;;;;;;;;;;;;;;;;5048290;28;20487;-60
2023/03/20 09:24:33;;;;;;;;;;;;;;;;;;5048970;28;19916;-60
2023/03/20 09:26:59;;;;;;;;;;;;;;;;;;5048547;28;19919;-60
2023/03/20 09:29:25;;;;;;;;;;;;;;;;;;5047836;28;20046;-60
2023/03/20 09:31:51;;;;;;;;;;;;;;;;;;5051868;28;20006;-60
2023/03/20 09:34:17;;;;;;;;;;;;;;;;;;5052478;28;19912;-60
2023/03/20 09:36:43;;;;;;;;;;;;;;;;;;5051766;28;19921;-60
2023/03/20 09:39:09;;;;;;;;;;;;;;;;;;5051969;28;19920;-60
2023/03/20 09:41:36;;;;;;;;;;;;;;;;;;5051755;28;20019;-60
2023/03/20 09:44:02;;;;;;;;;;;;;;;;;;5051932;28;19931;-60
2023/03/20 09:46:28;;;;;;;;;;;;;;;;;;5051869;28;20285;-60
2023/03/20 09:48:54;;;;;;;;;;;;;;;;;;5051690;28;19939;-59
2023/03/20 09:51:20;;;;;;;;;;;;;;;;;;5051826;28;20448;-60
2023/03/20 09:53:46;;;;;;;;;;;;;;;;;;5050665;28;19912;-59
2023/03/20 09:56:12;;;;;;;;;;;;;;;;;;5051867;28;19913;-60
2023/03/20 09:58:38;;;;;;;;;;;;;;;;;;5052062;28;19964;-60
2023/03/20 10:01:05;;;;;;;;;;;;;;;;;;5051573;28;20022;-60
2023/03/20 10:03:31;;;;;;;;;;;;;;;;;;5051775;28;19916;-60
2023/03/20 10:05:57;;;;;;;;;;;;;;;;;;5051588;28;19913;-60
2023/03/20 10:08:23;;;;;;;;;;;;;;;;;;5051779;28;20000;-60
2023/03/20 10:10:49;;;;;;;;;;;;;;;;;;5051159;28;20454;-60
2023/03/20 10:13:15;;;;;;;;;;;;;;;;;;5050900;28;19917;-61
2023/03/20 10:15:41;;;;;;;;;;;;;;;;;;5051001;28;19917;-60
2023/03/20 10:18:07;;;;;;;;;;;;;;;;;;5051510;28;20370;-60
2023/03/20 10:20:36;;;;;;;;;;;;;;;;;;5051501;28;19913;-60
2023/03/20 10:23:02;;;;;;;;;;;;;;;;;;5050615;28;19947;-60
2023/03/20 10:25:28;;;;;;;;;;;;;;;;;;5050752;28;19913;-60
2023/03/20 10:27:54;;;;;;;;;;;;;;;;;;5050481;28;19935;-60
2023/03/20 10:30:19;;;;;;;;;;;;;;;;;;5050545;28;19912;-60
2023/03/20 10:32:45;;;;;;;;;;;;;;;;;;5050486;28;19909;-60
2023/03/20 10:35:11;;;;;;;;;;;;;;;;;;5050886;28;19967;-60
2023/03/20 10:37:37;;;;;;;;;;;;;;;;;;5050554;28;20328;-60
2023/03/20 10:40:04;;;;;;;;;;;;;;;;;;5050795;28;19912;-60
2023/03/20 10:42:30;;;;;;;;;;;;;;;;;;5049653;28;19938;-60
2023/03/20 10:44:56;;;;;;;;;;;;;;;;;;5051024;28;19912;-60
2023/03/20 10:47:22;;;;;;;;;;;;;;;;;;5050734;28;19916;-59
2023/03/20 10:49:48;;;;;;;;;;;;;;;;;;5050811;28;19936;-60
2023/03/20 10:52:14;;;;;;;;;;;;;;;;;;5051318;28;19920;-60
2023/03/20 10:54:40;;;;;;;;;;;;;;;;;;5041428;28;20357;-60
2023/03/20 10:57:06;;;;;;;;;;;;;;;;;;5039881;28;19921;-60
2023/03/20 10:59:32;;;;;;;;;;;;;;;;;;5049561;28;19970;-60
2023/03/20 11:01:58;;;;;;;;;;;;;;;;;;5050651;28;19909;-59
2023/03/20 11:04:24;;;;;;;;;;;;;;;;;;5050476;28;19913;-59
2023/03/20 11:06:50;;;;;;;;;;;;;;;;;;5050365;28;19960;-60
2023/03/20 11:09:17;;;;;;;;;;;;;;;;;;5050182;28;19920;-60
2023/03/20 11:11:43;;;;;;;;;;;;;;;;;;5049384;28;20321;-60
2023/03/20 11:14:09;;;;;;;;;;;;;;;;;;5050401;28;19912;-60
2023/03/20 11:16:37;;;;;;;;;;;;;;;;;;5050171;28;19916;-60
2023/03/20 11:19:03;;;;;;;;;;;;;;;;;;5050132;28;19916;-60
2023/03/20 11:21:29;;;;;;;;;;;;;;;;;;5050290;28;19909;-60
2023/03/20 11:23:55;;;;;;;;;;;;;;;;;;5050037;28;19921;-60
2023/03/20 11:26:21;;;;;;;;;;;;;;;;;;5050291;28;20005;-60
2023/03/20 11:28:47;;;;;;;;;;;;;;;;;;5050789;28;19982;-60
2023/03/20 11:31:12;;;;;;;;;;;;;;;;;;5049757;28;20425;-60
2023/03/20 11:33:38;;;;;;;;;;;;;;;;;;5043926;28;19921;-60
2023/03/20 11:36:04;;;;;;;;;;;;;;;;;;5029854;28;20315;-60
2023/03/20 11:38:31;;;;;;;;;;;;;;;;;;5039966;28;19948;-60
2023/03/20 11:40:56;;;;;;;;;;;;;;;;;;5043237;28;20397;-60
2023/03/20 11:43:22;;;;;;;;;;;;;;;;;;5040795;28;19913;-61
